Time;durP1;ratioP1;P1;durP2;ratioP2;P2;SDS_P1;SDS_P2;PMS_P1;PMS_P2;Temp;Humidity;BMP_temperature;BMP_pressure;BME280_temperature;BME280_humidity;BME280_pressure;Samples;Min_cycle;Max_cycle;Signal;HPM_P1;HPM_P2
2022/03/18 00:02:08;;;;;;;9.07;2.88;;;8.40;60.00;;;;;;5039996;28;20503;-46
2022/03/18 00:04:34;;;;;;;9.75;3.00;;;8.40;58.40;;;;;;5040195;28;20072;-46
2022/03/18 00:07:00;;;;;;;8.38;3.00;;;8.30;57.60;;;;;;5040405;28;20030;-46
2022/03/18 00:09:26;;;;;;;7.65;2.78;;;8.30;55.10;;;;;;5040103;28;20018;-46
2022/03/18 00:11:52;;;;;;;10.23;2.78;;;8.30;59.60;;;;;;5039774;28;20493;-45
2022/03/18 00:14:19;;;;;;;5.88;2.78;;;8.30;56.20;;;;;;5039936;28;20477;-45
2022/03/18 00:16:45;;;;;;;8.75;2.47;;;8.30;56.90;;;;;;5039728;28;20021;-46
2022/03/18 00:19:11;;;;;;;7.03;2.70;;;8.30;57.80;;;;;;5040183;28;20055;-47
2022/03/18 00:21:37;;;;;;;7.47;3.22;;;8.20;60.20;;;;;;5040124;28;20079;-45
2022/03/18 00:24:04;;;;;;;10.63;3.63;;;8.20;62.00;;;;;;5039298;28;20120;-45
2022/03/18 00:26:31;;;;;;;15.48;3.42;;;8.20;56.50;;;;;;5039520;28;20037;-46
2022/03/18 00:28:57;;;;;;;7.50;2.80;;;8.10;59.00;;;;;;5039560;28;20043;-46
2022/03/18 00:31:22;;;;;;;6.93;2.63;;;8.10;58.00;;;;;;5039497;28;20625;-48
2022/03/18 00:33:48;;;;;;;7.22;2.50;;;8.10;60.50;;;;;;5039366;28;20029;-47
2022/03/18 00:36:14;;;;;;;8.30;2.90;;;8.10;58.00;;;;;;5039348;28;20025;-46
2022/03/18 00:38:40;;;;;;;8.40;2.92;;;8.10;61.20;;;;;;5039537;28;20096;-49
2022/03/18 00:41:07;;;;;;;7.65;2.65;;;8.10;58.80;;;;;;5039529;28;20033;-46
2022/03/18 00:43:33;;;;;;;8.43;2.60;;;8.00;61.00;;;;;;5039517;28;20060;-46
2022/03/18 00:45:59;;;;;;;8.00;2.95;;;8.00;60.50;;;;;;5039142;28;20461;-45
2022/03/18 00:53:54;;;;;;;7.45;2.50;;;8.00;59.70;;;;;;5038842;28;20039;-47
2022/03/18 00:56:20;;;;;;;9.15;2.63;;;8.00;61.90;;;;;;5039003;28;20060;-46
2022/03/18 00:58:46;;;;;;;10.65;2.75;;;8.00;61.80;;;;;;5039403;28;20025;-46
2022/03/18 01:01:12;;;;;;;8.77;2.35;;;8.00;60.50;;;;;;5038947;28;20029;-46
2022/03/18 01:03:38;;;;;;;5.32;2.35;;;8.00;61.70;;;;;;5039125;28;20017;-46
2022/03/18 01:06:04;;;;;;;9.00;2.85;;;8.00;61.90;;;;;;5038839;28;20028;-46
2022/03/18 01:08:30;;;;;;;7.15;2.25;;;8.00;59.00;;;;;;5039104;28;20469;-45
2022/03/18 01:10:56;;;;;;;6.63;2.50;;;8.00;61.30;;;;;;5038740;28;20378;-45
2022/03/18 01:13:22;;;;;;;7.18;2.13;;;8.00;60.40;;;;;;5038968;28;20440;-46
2022/03/18 01:15:48;;;;;;;6.93;2.90;;;7.90;59.70;;;;;;5038645;28;20060;-46
2022/03/18 01:18:15;;;;;;;5.05;2.50;;;7.90;59.70;;;;;;5038685;28;20017;-45
2022/03/18 01:20:41;;;;;;;6.72;2.55;;;7.90;60.80;;;;;;5038756;28;20034;-45
2022/03/18 01:23:06;;;;;;;8.23;2.80;;;7.80;62.10;;;;;;5038760;28;20541;-46
2022/03/18 01:25:33;;;;;;;8.20;3.28;;;7.80;59.50;;;;;;5038659;28;20063;-46
2022/03/18 01:28:01;;;;;;;7.72;2.03;;;7.90;60.90;;;;;;5038473;28;20026;-48
2022/03/18 01:30:29;;;;;;;6.32;2.50;;;7.80;60.70;;;;;;5038953;28;20504;-48
2022/03/18 01:32:55;;;;;;;6.65;3.05;;;7.80;61.70;;;;;;5038515;28;20440;-47
2022/03/18 01:35:21;;;;;;;7.45;2.67;;;7.70;61.50;;;;;;5038099;28;20461;-46
2022/03/18 01:37:47;;;;;;;9.52;2.85;;;7.80;60.40;;;;;;5038248;28;20049;-45
2022/03/18 01:40:13;;;;;;;10.13;2.80;;;7.70;61.90;;;;;;5038220;28;20036;-46
2022/03/18 01:42:40;;;;;;;10.10;2.72;;;7.70;60.40;;;;;;5038374;28;20021;-46
2022/03/18 01:45:07;;;;;;;6.55;2.55;;;7.70;61.10;;;;;;5038320;28;20025;-46
2022/03/18 01:47:33;;;;;;;9.98;3.08;;;7.70;61.10;;;;;;5036833;28;20075;-46
2022/03/18 01:49:59;;;;;;;9.32;2.85;;;7.60;61.10;;;;;;5038061;28;20120;-47
2022/03/18 01:52:25;;;;;;;10.07;2.38;;;7.60;62.20;;;;;;5038333;28;20104;-48
2022/03/18 01:54:54;;;;;;;7.60;2.50;;;7.60;60.40;;;;;;5038454;28;20397;-48
2022/03/18 01:57:22;;;;;;;5.70;2.17;;;7.60;61.40;;;;;;5038231;28;20492;-45
2022/03/18 01:59:50;;;;;;;7.35;2.55;;;7.50;62.80;;;;;;5038109;28;20014;-46
2022/03/18 02:02:17;;;;;;;9.30;2.55;;;7.50;62.20;;;;;;5037894;28;20021;-46
2022/03/18 02:04:44;;;;;;;9.55;2.90;;;7.60;62.70;;;;;;5038156;28;20049;-46
2022/03/18 02:07:10;;;;;;;8.98;3.20;;;7.60;62.80;;;;;;5038037;28;20052;-46
2022/03/18 02:09:38;;;;;;;7.95;2.72;;;7.50;64.60;;;;;;5037963;28;20040;-46
2022/03/18 02:12:06;;;;;;;7.75;2.55;;;7.50;63.00;;;;;;5037891;28;20108;-46
2022/03/18 02:14:37;;;;;;;5.40;3.10;;;7.50;62.10;;;;;;5037682;28;20462;-46
2022/03/18 02:17:06;;;;;;;9.07;2.88;;;7.50;63.10;;;;;;5037715;28;20025;-46
2022/03/18 02:19:33;;;;;;;9.18;2.53;;;7.50;62.40;;;;;;5037919;28;20029;-46
2022/03/18 02:21:58;;;;;;;10.85;3.65;;;7.50;67.10;;;;;;5037646;28;20482;-45
2022/03/18 02:24:25;;;;;;;8.93;3.08;;;7.50;62.10;;;;;;5037468;28;20072;-46
2022/03/18 02:26:52;;;;;;;10.70;3.08;;;7.50;64.20;;;;;;5037622;28;20054;-45
2022/03/18 02:29:19;;;;;;;8.18;2.90;;;7.50;61.90;;;;;;5037413;28;20474;-45
2022/03/18 02:31:45;;;;;;;7.78;3.38;;;7.50;63.20;;;;;;5037744;28;20045;-46
2022/03/18 02:34:11;;;;;;;9.18;3.20;;;7.40;62.70;;;;;;5037487;28;20037;-46
2022/03/18 02:36:37;;;;;;;8.80;3.10;;;7.40;65.30;;;;;;5037414;28;20025;-46
2022/03/18 02:39:04;;;;;;;12.60;3.05;;;7.40;65.20;;;;;;5036057;28;20112;-46
2022/03/18 02:41:30;;;;;;;7.15;3.00;;;7.40;63.90;;;;;;5037470;28;20104;-46
2022/03/18 02:43:55;;;;;;;9.05;3.40;;;7.40;62.70;;;;;;5037261;28;20088;-45
2022/03/18 02:46:21;;;;;;;9.23;2.85;;;7.40;62.00;;;;;;5037464;28;20021;-45
2022/03/18 02:48:47;;;;;;;8.23;2.90;;;7.30;62.80;;;;;;5041310;28;20025;-46
2022/03/18 02:51:13;;;;;;;8.25;2.53;;;7.40;62.60;;;;;;5041411;28;20032;-46
2022/03/18 02:53:40;;;;;;;9.90;3.08;;;7.30;61.10;;;;;;5041214;28;20025;-45
2022/03/18 02:56:07;;;;;;;10.88;2.95;;;7.30;63.10;;;;;;5041390;28;20052;-45
2022/03/18 02:58:35;;;;;;;10.43;3.35;;;7.30;61.30;;;;;;5042041;28;20044;-46
2022/03/18 03:01:02;;;;;;;9.90;2.83;;;7.30;64.90;;;;;;5041025;28;20029;-45
2022/03/18 03:03:28;;;;;;;7.72;2.63;;;7.30;64.00;;;;;;5041169;28;20026;-47
2022/03/18 03:08:39;;;;;;;8.80;2.22;;;7.30;63.30;;;;;;5041332;28;20060;-45
2022/03/18 03:11:05;;;;;;;9.52;2.92;;;7.20;64.30;;;;;;5041217;28;20144;-48
2022/03/18 03:13:32;;;;;;;7.85;2.65;;;7.20;67.00;;;;;;5040888;28;20033;-46
2022/03/18 03:15:59;;;;;;;6.78;2.42;;;7.20;63.70;;;;;;5041105;28;20030;-46
2022/03/18 03:18:25;;;;;;;6.88;2.50;;;7.20;63.30;;;;;;5041116;28;20021;-47
2022/03/18 03:20:50;;;;;;;4.90;2.28;;;7.20;65.40;;;;;;5040827;28;20022;-46
2022/03/18 03:23:16;;;;;;;6.30;2.22;;;7.10;64.80;;;;;;5040812;28;20578;-45
2022/03/18 03:25:42;;;;;;;9.38;2.05;;;7.10;66.50;;;;;;5040956;28;20512;-49
2022/03/18 03:28:08;;;;;;;4.43;2.13;;;7.10;66.50;;;;;;5040889;28;20108;-46
2022/03/18 03:30:34;;;;;;;10.82;2.47;;;7.10;66.00;;;;;;5040691;28;20021;-47
2022/03/18 03:33:00;;;;;;;6.65;2.38;;;7.10;66.00;;;;;;5040525;28;20036;-46
2022/03/18 03:35:26;;;;;;;6.97;2.63;;;7.10;64.60;;;;;;5040581;28;20021;-49
2022/03/18 03:37:52;;;;;;;7.95;2.33;;;7.10;64.00;;;;;;5040873;28;20021;-46
2022/03/18 03:40:19;;;;;;;7.72;2.28;;;7.10;65.10;;;;;;5040533;28;20101;-46
2022/03/18 03:42:45;;;;;;;8.95;2.47;;;7.10;64.30;;;;;;5040268;28;20558;-46
2022/03/18 03:45:13;;;;;;;8.75;2.53;;;7.10;63.90;;;;;;5040361;28;20036;-47
2022/03/18 03:47:40;;;;;;;8.85;2.50;;;7.10;65.10;;;;;;5040201;28;20108;-47
2022/03/18 03:50:08;;;;;;;7.97;2.50;;;7.10;64.80;;;;;;5040496;28;20104;-46
2022/03/18 03:52:37;;;;;;;7.88;2.53;;;7.10;64.90;;;;;;5040265;28;20025;-46
2022/03/18 03:55:04;;;;;;;7.30;2.30;;;7.10;65.70;;;;;;5040199;28;20022;-47
2022/03/18 03:57:30;;;;;;;9.68;3.25;;;7.10;64.50;;;;;;5039863;28;20026;-48
2022/03/18 03:59:56;;;;;;;6.57;2.05;;;7.10;66.00;;;;;;5040278;28;20492;-46
2022/03/18 04:02:23;;;;;;;8.07;2.60;;;7.00;66.50;;;;;;5040276;28;20398;-47
2022/03/18 04:04:49;;;;;;;6.63;2.40;;;7.00;66.00;;;;;;5040011;28;20025;-47
2022/03/18 04:07:15;;;;;;;5.60;2.10;;;7.00;66.20;;;;;;5040246;28;20030;-46
2022/03/18 04:09:42;;;;;;;7.90;2.80;;;7.00;66.40;;;;;;5040202;28;20053;-49
2022/03/18 04:12:08;;;;;;;4.55;2.10;;;7.00;67.10;;;;;;5040040;28;20030;-46
2022/03/18 04:14:34;;;;;;;7.63;2.40;;;7.00;66.10;;;;;;5040051;28;20013;-46
2022/03/18 04:17:02;;;;;;;6.13;2.40;;;7.00;66.40;;;;;;5039991;28;20087;-48
2022/03/18 04:19:28;;;;;;;8.52;2.53;;;7.00;66.70;;;;;;5039737;28;20492;-47
2022/03/18 04:21:54;;;;;;;6.22;1.85;;;6.90;68.40;;;;;;5039838;28;20029;-47
2022/03/18 04:24:19;;;;;;;8.77;2.50;;;6.90;66.30;;;;;;5039665;28;20046;-47
2022/03/18 04:26:46;;;;;;;9.05;2.25;;;7.00;68.80;;;;;;5039622;28;20032;-47
2022/03/18 04:29:12;;;;;;;5.40;2.40;;;7.00;66.40;;;;;;5039818;28;20025;-46
2022/03/18 04:31:39;;;;;;;7.38;3.10;;;6.90;65.60;;;;;;5039753;28;20040;-46
2022/03/18 04:34:05;;;;;;;11.65;3.83;;;6.90;66.20;;;;;;5039632;28;20025;-47
2022/03/18 04:36:31;;;;;;;10.15;3.90;;;6.90;65.70;;;;;;5039698;28;20079;-46
2022/03/18 04:38:57;;;;;;;11.30;3.40;;;6.90;65.20;;;;;;5039644;28;20014;-48
2022/03/18 04:41:23;;;;;;;6.72;2.70;;;6.90;66.70;;;;;;5039362;28;20029;-46
2022/03/18 04:43:49;;;;;;;5.80;2.60;;;6.90;69.00;;;;;;5039339;28;20022;-46
2022/03/18 04:46:15;;;;;;;7.65;2.47;;;6.90;67.10;;;;;;5039620;28;20025;-46
2022/03/18 04:48:41;;;;;;;11.13;2.60;;;6.90;69.30;;;;;;5039438;28;20024;-46
2022/03/18 04:51:06;;;;;;;7.90;2.40;;;6.90;69.50;;;;;;5039364;28;20029;-46
2022/03/18 04:53:33;;;;;;;8.52;3.03;;;6.90;69.00;;;;;;5039001;28;20031;-46
2022/03/18 04:55:59;;;;;;;8.85;3.17;;;6.90;69.20;;;;;;5039162;28;20029;-46
2022/03/18 04:58:24;;;;;;;8.80;2.65;;;6.90;69.20;;;;;;5039019;28;20025;-45
2022/03/18 05:00:50;;;;;;;7.15;2.55;;;6.90;69.30;;;;;;5039446;28;20416;-46
2022/03/18 05:03:16;;;;;;;8.82;2.40;;;6.90;69.50;;;;;;5037650;28;20370;-46
2022/03/18 05:05:41;;;;;;;6.70;2.28;;;6.90;69.40;;;;;;5039198;28;20478;-46
2022/03/18 05:08:08;;;;;;;10.77;2.67;;;6.90;69.70;;;;;;5039018;28;20029;-46
2022/03/18 05:10:34;;;;;;;7.07;2.45;;;6.90;70.30;;;;;;5038187;28;20063;-47
2022/03/18 05:13:00;;;;;;;8.30;3.15;;;6.90;69.90;;;;;;5038658;28;20033;-46
2022/03/18 05:15:26;;;;;;;7.30;2.47;;;6.90;69.60;;;;;;5039201;28;20025;-45
2022/03/18 05:17:54;;;;;;;5.93;2.28;;;6.90;69.70;;;;;;5038560;28;20066;-46
2022/03/18 05:20:20;;;;;;;5.80;2.30;;;7.00;68.30;;;;;;5038436;28;20049;-46
2022/03/18 05:22:46;;;;;;;7.15;2.47;;;6.90;72.20;;;;;;5038415;28;20025;-45
2022/03/18 05:25:13;;;;;;;9.55;2.67;;;6.90;69.00;;;;;;5038543;28;20040;-47
2022/03/18 05:27:43;;;;;;;11.07;3.08;;;6.90;70.20;;;;;;5038687;28;20054;-45
2022/03/18 05:30:14;;;;;;;7.55;2.78;;;7.00;71.60;;;;;;5038426;28;20036;-48
2022/03/18 05:32:41;;;;;;;7.60;2.42;;;7.00;70.10;;;;;;5038315;28;20397;-45
2022/03/18 05:35:08;;;;;;;11.20;2.97;;;7.00;70.80;;;;;;5038675;28;20049;-47
2022/03/18 05:37:33;;;;;;;7.30;2.70;;;7.00;69.50;;;;;;5038741;28;20024;-47
2022/03/18 05:39:59;;;;;;;8.73;2.40;;;7.00;67.90;;;;;;5038465;28;20030;-48
2022/03/18 05:42:26;;;;;;;9.18;3.83;;;7.00;68.00;;;;;;5038407;28;20028;-46
2022/03/18 05:44:52;;;;;;;7.68;2.58;;;7.00;72.50;;;;;;5038332;28;20033;-46
2022/03/18 05:47:18;;;;;;;9.45;2.50;;;7.00;69.80;;;;;;5038478;28;20567;-46
2022/03/18 05:49:45;;;;;;;7.82;2.30;;;6.90;69.20;;;;;;5038270;28;20075;-50
2022/03/18 05:52:11;;;;;;;9.05;2.92;;;7.00;69.30;;;;;;5037781;28;20075;-47
2022/03/18 05:54:37;;;;;;;7.50;2.42;;;7.00;66.50;;;;;;5038044;28;20021;-46
2022/03/18 05:57:03;;;;;;;12.27;3.08;;;6.90;72.60;;;;;;5037936;28;20013;-46
2022/03/18 05:59:31;;;;;;;8.93;2.70;;;7.00;72.20;;;;;;5038169;28;20079;-47
2022/03/18 06:01:59;;;;;;;9.10;2.63;;;7.00;69.30;;;;;;5038084;28;20060;-47
2022/03/18 06:04:25;;;;;;;6.53;2.60;;;6.90;69.80;;;;;;5038312;28;20385;-46
2022/03/18 06:06:52;;;;;;;8.25;2.58;;;7.00;71.50;;;;;;5038070;28;20025;-46
2022/03/18 06:12:03;;;;;;;;;;;6.90;71.80;;;;;;5038260;28;20095;-46
2022/03/18 06:14:30;;;;;;;9.93;3.80;;;6.90;74.10;;;;;;5037728;28;19909;-46
2022/03/18 06:17:01;;;;;;;7.28;2.90;;;6.90;73.00;;;;;;5037814;28;20041;-46
2022/03/18 06:19:28;;;;;;;6.28;2.50;;;6.90;74.10;;;;;;5038141;28;20017;-46
2022/03/18 06:21:54;;;;;;;8.00;2.95;;;6.90;73.80;;;;;;5037942;28;20025;-46
2022/03/18 06:24:21;;;;;;;9.65;3.40;;;6.90;73.40;;;;;;5037431;28;20041;-49
2022/03/18 06:26:49;;;;;;;8.68;2.90;;;6.90;69.60;;;;;;5037628;28;20452;-46
2022/03/18 06:29:15;;;;;;;12.80;4.00;;;6.90;70.80;;;;;;5037713;28;20022;-45
2022/03/18 06:31:41;;;;;;;9.45;3.65;;;6.90;71.70;;;;;;5037554;28;20100;-46
2022/03/18 06:34:09;;;;;;;10.05;3.47;;;6.80;70.40;;;;;;5037668;28;20464;-46
2022/03/18 06:36:36;;;;;;;8.98;3.22;;;6.90;73.00;;;;;;5037515;28;20025;-45
2022/03/18 06:39:03;;;;;;;9.00;3.28;;;6.80;73.20;;;;;;5037578;28;20022;-48
2022/03/18 06:41:29;;;;;;;7.32;3.20;;;6.80;71.90;;;;;;5037631;28;20511;-50
2022/03/18 06:43:57;;;;;;;7.43;3.17;;;6.90;67.90;;;;;;5037670;28;20025;-53
2022/03/18 06:46:23;;;;;;;6.40;3.00;;;6.90;70.70;;;;;;5037496;28;20054;-49
2022/03/18 06:48:48;;;;;;;11.80;3.53;;;6.80;73.30;;;;;;5037628;28;20113;-46
2022/03/18 06:51:14;;;;;;;8.27;3.28;;;6.90;73.20;;;;;;5037620;28;20057;-48
2022/03/18 06:53:41;;;;;;;8.10;3.17;;;6.90;73.40;;;;;;5037543;28;20037;-46
2022/03/18 06:56:07;;;;;;;9.45;2.95;;;6.90;74.40;;;;;;5037540;28;20049;-48
2022/03/18 06:58:34;;;;;;;11.23;2.97;;;6.90;76.30;;;;;;5037369;28;20032;-51
2022/03/18 07:01:00;;;;;;;9.95;3.50;;;6.90;73.40;;;;;;5037279;28;20027;-51
2022/03/18 07:03:26;;;;;;;7.90;3.00;;;6.90;74.50;;;;;;5037467;28;20032;-48
2022/03/18 07:05:52;;;;;;;8.35;3.03;;;6.90;73.20;;;;;;5037645;28;20108;-47
2022/03/18 07:08:18;;;;;;;9.20;3.22;;;7.00;73.80;;;;;;5037216;28;20108;-50
2022/03/18 07:10:43;;;;;;;8.35;3.38;;;7.00;74.80;;;;;;5037228;28;20026;-49
2022/03/18 07:13:09;;;;;;;7.68;3.35;;;7.00;74.30;;;;;;5037140;28;20030;-46
2022/03/18 07:15:35;;;;;;;9.00;2.95;;;7.10;72.50;;;;;;5037399;28;20504;-49
2022/03/18 07:18:03;;;;;;;9.43;2.85;;;7.10;74.50;;;;;;5037380;28;20479;-46
2022/03/18 07:20:33;;;;;;;9.25;3.50;;;7.10;74.20;;;;;;5037334;28;20053;-46
2022/03/18 07:23:05;;;;;;;9.40;3.30;;;7.10;75.20;;;;;;5037327;28;20031;-49
2022/03/18 07:25:31;;;;;;;8.73;3.30;;;7.20;73.10;;;;;;5037222;28;20040;-46
2022/03/18 07:27:58;;;;;;;10.80;3.28;;;7.30;75.90;;;;;;5037087;28;20056;-48
2022/03/18 07:30:24;;;;;;;7.43;3.50;;;7.30;75.90;;;;;;5037245;28;20032;-48
2022/03/18 07:32:50;;;;;;;11.23;3.58;;;7.30;73.30;;;;;;5037344;28;20503;-50
2022/03/18 07:35:16;;;;;;;11.00;4.90;;;7.30;74.60;;;;;;5040617;28;20017;-46
2022/03/18 07:37:42;;;;;;;9.85;4.53;;;7.40;74.10;;;;;;5040773;28;20014;-49
2022/03/18 07:40:09;;;;;;;10.50;3.70;;;7.50;76.10;;;;;;5040663;28;20406;-52
2022/03/18 07:42:53;;;;;;;9.65;3.58;;;7.50;73.60;;;;;;5040530;28;20072;-48
2022/03/18 07:45:22;;;;;;;9.25;3.65;;;7.60;73.50;;;;;;5040906;28;20033;-47
2022/03/18 07:47:52;;;;;;;8.57;3.40;;;7.60;74.50;;;;;;5040525;28;20018;-47
2022/03/18 07:50:20;;;;;;;10.23;3.50;;;7.70;72.70;;;;;;5040359;28;20079;-49
2022/03/18 07:52:49;;;;;;;12.90;3.72;;;7.70;72.70;;;;;;5040422;28;20048;-47
2022/03/18 07:55:16;;;;;;;8.60;3.55;;;7.70;71.40;;;;;;5040421;28;20051;-47
2022/03/18 07:57:42;;;;;;;10.57;4.10;;;7.80;73.60;;;;;;5040658;28;20032;-50
2022/03/18 08:00:11;;;;;;;11.02;3.60;;;7.90;74.30;;;;;;5040315;28;20446;-50
2022/03/18 08:02:38;;;;;;;11.80;4.18;;;7.90;75.60;;;;;;5039911;28;20405;-49
2022/03/18 08:05:04;;;;;;;8.88;3.35;;;8.00;74.20;;;;;;5040450;28;20036;-51
2022/03/18 08:07:30;;;;;;;10.30;3.20;;;8.00;73.60;;;;;;5040189;28;20018;-48
2022/03/18 08:09:55;;;;;;;9.43;3.80;;;8.10;77.00;;;;;;5040339;28;20560;-47
2022/03/18 08:12:21;;;;;;;9.20;3.60;;;8.20;73.90;;;;;;5039847;28;20076;-46
2022/03/18 08:14:47;;;;;;;9.85;3.20;;;8.20;72.20;;;;;;5038886;28;20034;-50
2022/03/18 08:17:13;;;;;;;9.23;3.78;;;8.30;74.80;;;;;;5038314;28;20041;-45
2022/03/18 08:19:39;;;;;;;10.70;3.80;;;8.40;75.50;;;;;;5039384;28;20036;-48
2022/03/18 08:22:05;;;;;;;8.75;3.67;;;8.50;72.50;;;;;;5039736;28;20017;-49
2022/03/18 08:24:31;;;;;;;9.45;3.50;;;8.60;74.00;;;;;;5040013;28;20064;-45
2022/03/18 08:26:58;;;;;;;10.60;3.17;;;8.70;73.40;;;;;;5039555;28;20045;-46
2022/03/18 08:29:24;;;;;;;6.15;2.80;;;8.80;72.30;;;;;;5038782;28;20064;-46
2022/03/18 08:31:50;;;;;;;7.43;3.10;;;8.90;72.20;;;;;;5038165;28;20362;-46
2022/03/18 08:34:16;;;;;;;8.48;3.20;;;9.10;71.50;;;;;;5037633;28;20083;-46
2022/03/18 08:36:42;;;;;;;10.45;3.50;;;9.20;73.10;;;;;;5038234;28;20022;-45
2022/03/18 08:39:07;;;;;;;11.38;3.10;;;9.40;71.30;;;;;;5039012;28;20022;-48
2022/03/18 08:41:33;;;;;;;6.63;3.03;;;9.60;71.10;;;;;;5038874;28;20021;-46
2022/03/18 08:43:59;;;;;;;8.20;3.20;;;9.80;71.00;;;;;;5038827;28;20029;-48
2022/03/18 08:46:25;;;;;;;13.13;3.55;;;10.00;70.20;;;;;;5039213;28;20378;-46
2022/03/18 08:48:50;;;;;;;11.00;3.80;;;10.30;69.40;;;;;;5037799;28;20022;-47
2022/03/18 08:51:16;;;;;;;8.63;2.95;;;10.60;68.20;;;;;;5039165;28;20025;-46
2022/03/18 08:53:42;;;;;;;7.80;3.10;;;10.90;68.50;;;;;;5039049;28;20032;-46
2022/03/18 08:56:08;;;;;;;9.90;3.47;;;11.30;67.00;;;;;;5039485;28;20020;-47
2022/03/18 08:58:34;;;;;;;7.03;2.95;;;11.60;65.40;;;;;;5039047;28;20030;-47
2022/03/18 09:00:59;;;;;;;7.90;2.75;;;12.00;65.40;;;;;;5039040;28;20025;-46
2022/03/18 09:03:25;;;;;;;6.32;2.90;;;12.40;64.70;;;;;;5038956;28;20033;-45
2022/03/18 09:05:51;;;;;;;7.53;2.83;;;12.70;63.90;;;;;;5038969;28;20028;-48
2022/03/18 09:08:18;;;;;;;8.57;3.03;;;13.10;62.50;;;;;;5039063;28;20030;-47
2022/03/18 09:10:44;;;;;;;10.55;3.42;;;13.50;62.30;;;;;;5038886;28;20029;-48
2022/03/18 09:13:10;;;;;;;9.52;3.10;;;13.80;61.50;;;;;;5038671;28;20025;-47
2022/03/18 09:15:36;;;;;;;7.88;2.72;;;14.20;61.10;;;;;;5038529;28;20104;-47
2022/03/18 09:18:02;;;;;;;8.40;2.97;;;14.50;57.90;;;;;;5038895;28;20022;-47
2022/03/18 09:20:28;;;;;;;7.88;2.83;;;14.80;58.80;;;;;;5038614;28;20025;-48
2022/03/18 09:22:53;;;;;;;7.03;2.95;;;15.20;57.30;;;;;;5038340;28;20036;-49
2022/03/18 09:25:20;;;;;;;7.40;2.95;;;15.60;58.00;;;;;;5038547;28;20037;-49
2022/03/18 09:27:46;;;;;;;8.60;2.60;;;15.80;56.20;;;;;;5038468;28;20052;-49
2022/03/18 09:30:13;;;;;;;7.30;2.67;;;16.30;53.80;;;;;;5038239;28;20375;-47
2022/03/18 09:32:43;;;;;;;7.45;2.80;;;16.70;52.00;;;;;;5038776;28;20029;-48
2022/03/18 09:35:14;;;;;;;7.28;2.47;;;17.20;52.90;;;;;;5038551;28;20014;-49
2022/03/18 09:37:40;;;;;;;8.57;2.28;;;17.50;48.80;;;;;;5038354;28;20037;-48
2022/03/18 09:40:08;;;;;;;5.82;2.00;;;17.70;47.60;;;;;;5038203;28;20572;-48
2022/03/18 09:42:35;;;;;;;8.48;2.45;;;17.90;46.10;;;;;;5038692;28;20038;-52
2022/03/18 09:45:01;;;;;;;6.97;2.83;;;18.10;45.60;;;;;;5038217;28;20028;-49
2022/03/18 09:47:28;;;;;;;6.35;2.05;;;18.40;48.30;;;;;;5038343;28;20025;-49
2022/03/18 09:49:54;;;;;;;6.53;2.15;;;18.70;46.70;;;;;;5038037;28;20037;-48
2022/03/18 09:52:21;;;;;;;4.03;1.95;;;19.10;46.40;;;;;;5038163;28;20060;-50
2022/03/18 09:54:47;;;;;;;4.80;2.10;;;19.50;44.30;;;;;;5038456;28;20022;-49
2022/03/18 09:57:13;;;;;;;5.70;2.17;;;19.70;41.50;;;;;;5037749;28;20032;-52
2022/03/18 09:59:38;;;;;;;6.72;2.30;;;19.90;41.20;;;;;;5037982;28;20515;-50
2022/03/18 10:02:43;;;;;;;4.45;2.08;;;20.40;43.70;;;;;;5038007;28;20025;-50
2022/03/18 10:05:13;;;;;;;5.40;2.13;;;21.20;43.10;;;;;;5035750;28;20025;-53
2022/03/18 10:07:40;;;;;;;7.10;2.40;;;21.30;37.50;;;;;;5035095;28;20136;-55
2022/03/18 10:10:16;;;;;;;5.40;2.42;;;21.40;39.00;;;;;;5036286;28;20037;-54
2022/03/18 10:12:45;;;;;;;5.30;2.13;;;21.50;36.60;;;;;;5037937;28;20040;-51
2022/03/18 10:15:15;;;;;;;5.72;2.67;;;21.40;37.50;;;;;;5037313;28;20021;-54
2022/03/18 10:17:46;;;;;;;5.55;2.33;;;21.50;37.30;;;;;;5037199;28;20029;-53
2022/03/18 10:20:27;;;;;;;5.25;1.98;;;21.70;37.20;;;;;;5037050;28;20514;-52
2022/03/18 10:22:56;;;;;;;5.22;1.90;;;22.10;39.00;;;;;;5037303;28;20099;-55
2022/03/18 10:25:40;;;;;;;4.53;2.20;;;22.20;33.90;;;;;;5037307;28;20037;-53
2022/03/18 10:28:08;;;;;;;8.53;2.47;;;22.10;36.40;;;;;;5037123;28;20030;-56
2022/03/18 10:30:35;;;;;;;4.65;2.15;;;22.10;34.60;;;;;;5037642;28;20268;-50
2022/03/18 10:33:01;;;;;;;6.00;2.28;;;22.30;39.00;;;;;;5035871;28;20029;-52
2022/03/18 10:38:32;;;;;;;6.20;2.30;;;22.50;34.90;;;;;;5037578;28;20036;-52
2022/03/18 10:40:59;;;;;;;5.85;2.10;;;22.40;30.80;;;;;;5037624;28;20029;-52
2022/03/18 10:43:27;;;;;;;3.70;2.00;;;22.60;34.60;;;;;;5037346;28;20438;-56
2022/03/18 10:46:00;;;;;;;7.80;2.60;;;22.80;31.70;;;;;;5037136;28;20426;-56
2022/03/18 10:48:26;;;;;;;4.28;1.95;;;23.20;34.70;;;;;;5037047;28;20057;-52
2022/03/18 10:51:06;;;;;;;4.78;1.95;;;23.40;30.70;;;;;;5037246;28;20041;-52
2022/03/18 10:53:33;;;;;;;5.22;1.80;;;23.60;31.50;;;;;;5037238;28;20021;-53
2022/03/18 10:56:01;;;;;;;5.35;1.88;;;23.80;32.00;;;;;;5037582;28;20079;-55
2022/03/18 10:58:30;;;;;;;4.72;2.05;;;24.20;29.60;;;;;;5037564;28;20025;-53
2022/03/18 11:00:59;;;;;;;3.67;1.63;;;24.50;30.50;;;;;;5037568;28;20052;-54
2022/03/18 11:03:26;;;;;;;5.10;1.90;;;24.90;30.70;;;;;;5037236;28;20056;-54
2022/03/18 11:05:52;;;;;;;2.47;1.73;;;25.00;29.10;;;;;;5037348;28;20037;-54
2022/03/18 11:08:22;;;;;;;4.65;1.90;;;25.10;27.30;;;;;;5038631;28;20025;-51
2022/03/18 11:13:48;;;;;;;5.05;1.80;;;25.30;29.00;;;;;;5041060;28;20041;-55
2022/03/18 11:16:16;;;;;;;;;;;25.40;28.80;;;;;;5041491;28;20033;-53
2022/03/18 11:18:44;;;;;;;3.42;1.90;;;25.30;29.30;;;;;;5041191;28;19905;-53
2022/03/18 11:21:10;;;;;;;3.97;1.70;;;25.00;27.60;;;;;;5041128;28;20068;-55
2022/03/18 11:23:39;;;;;;;4.72;1.70;;;25.10;27.50;;;;;;5040693;28;20056;-52
2022/03/18 11:26:06;;;;;;;3.50;1.60;;;25.10;25.50;;;;;;5041013;28;20030;-55
2022/03/18 11:28:32;;;;;;;2.88;1.70;;;25.30;25.70;;;;;;5040812;28;20040;-50
2022/03/18 11:31:10;;;;;;;4.38;1.55;;;25.20;25.10;;;;;;5040914;28;20101;-52
2022/03/18 11:33:38;;;;;;;4.80;1.70;;;25.10;26.10;;;;;;5040534;28;20029;-54
2022/03/18 11:36:07;;;;;;;4.70;1.40;;;24.90;26.30;;;;;;5040839;28;20025;-54
2022/03/18 11:39:02;;;;;;;5.10;1.90;;;25.30;27.00;;;;;;5041136;28;20036;-50
2022/03/18 11:41:52;;;;;;;2.10;1.15;;;25.50;27.00;;;;;;5040601;28;20083;-54
2022/03/18 11:44:36;;;;;;;4.15;1.55;;;25.70;26.70;;;;;;5040243;28;20041;-54
2022/03/18 11:47:20;;;;;;;3.25;1.77;;;26.00;27.20;;;;;;5040349;28;20637;-50
2022/03/18 11:49:47;;;;;;;2.38;1.30;;;26.30;25.90;;;;;;5040333;28;20128;-56
2022/03/18 11:52:14;;;;;;;3.47;1.48;;;26.80;26.70;;;;;;5040424;28;20079;-52
2022/03/18 11:54:54;;;;;;;6.30;1.52;;;27.10;24.20;;;;;;5040282;28;20018;-49
2022/03/18 11:57:46;;;;;;;2.85;1.40;;;27.10;25.90;;;;;;5040453;28;20034;-50
2022/03/18 12:00:31;;;;;;;4.40;1.50;;;27.40;26.40;;;;;;5040446;28;20042;-50
2022/03/18 12:02:59;;;;;;;4.57;1.45;;;27.40;25.70;;;;;;5040321;28;20056;-51
2022/03/18 12:05:30;;;;;;;3.60;1.70;;;27.50;25.00;;;;;;5040069;28;20468;-52
2022/03/18 12:07:57;;;;;;;4.20;1.60;;;27.30;24.30;;;;;;5040323;28;20057;-52
2022/03/18 12:10:33;;;;;;;4.75;1.73;;;27.10;24.10;;;;;;5040193;28;20040;-51
2022/03/18 12:13:02;;;;;;;3.97;1.67;;;26.70;23.50;;;;;;5040037;28;20032;-52
2022/03/18 12:15:30;;;;;;;4.97;1.70;;;26.80;25.50;;;;;;5040190;28;20034;-52
2022/03/18 12:17:59;;;;;;;4.72;1.70;;;26.80;26.30;;;;;;5040305;28;20024;-53
2022/03/18 12:20:26;;;;;;;6.35;2.10;;;26.70;24.20;;;;;;5039482;28;20029;-54
2022/03/18 12:22:53;;;;;;;2.97;1.85;;;26.70;25.50;;;;;;5039588;28;20022;-52
2022/03/18 12:25:23;;;;;;;4.38;1.92;;;26.70;23.70;;;;;;5039754;28;20029;-53
2022/03/18 12:27:50;;;;;;;3.20;1.90;;;26.50;25.10;;;;;;5039864;28;20471;-53
2022/03/18 12:30:23;;;;;;;3.22;1.77;;;26.70;25.00;;;;;;5039958;28;20025;-52
2022/03/18 12:33:01;;;;;;;7.77;2.23;;;26.80;22.70;;;;;;5039624;28;20036;-51
2022/03/18 12:35:32;;;;;;;4.78;2.30;;;27.00;24.10;;;;;;5039538;28;20045;-49
2022/03/18 12:38:07;;;;;;;4.63;2.13;;;27.30;25.70;;;;;;5039294;28;20104;-53
2022/03/18 12:40:38;;;;;;;5.65;2.28;;;27.40;24.40;;;;;;5039442;28;20022;-53
2022/03/18 12:43:04;;;;;;;5.18;2.40;;;27.40;25.00;;;;;;5039259;28;20516;-52
2022/03/18 12:45:37;;;;;;;4.93;2.15;;;27.50;24.00;;;;;;5039510;28;20021;-52
2022/03/18 12:48:04;;;;;;;6.57;2.53;;;27.50;23.90;;;;;;5039114;28;20057;-54
2022/03/18 12:50:40;;;;;;;4.82;2.10;;;27.20;23.90;;;;;;5039087;28;20321;-55
2022/03/18 12:53:15;;;;;;;4.43;2.28;;;27.40;24.10;;;;;;5038940;28;20025;-50
2022/03/18 12:55:42;;;;;;;5.30;2.25;;;27.50;23.50;;;;;;5039460;28;20018;-55
2022/03/18 12:58:08;;;;;;;5.03;2.10;;;27.50;24.20;;;;;;5038448;28;20014;-51
2022/03/18 13:00:42;;;;;;;5.30;2.17;;;27.50;24.20;;;;;;5038947;28;20105;-53
2022/03/18 13:03:17;;;;;;;;;;;27.60;24.00;;;;;;5039501;28;20101;-51
2022/03/18 13:05:44;;;;;;;4.18;2.00;;;27.80;23.50;;;;;;5038909;28;19912;-56
2022/03/18 13:08:11;;;;;;;4.03;2.25;;;27.90;24.60;;;;;;5038845;28;20568;-56
2022/03/18 13:10:37;;;;;;;4.05;2.35;;;28.00;23.70;;;;;;5039104;28;20017;-51
2022/03/18 13:13:11;;;;;;;4.90;2.22;;;28.00;23.50;;;;;;5038730;28;20029;-50